Time;durP1;ratioP1;P1;durP2;ratioP2;P2;SDS_P1;SDS_P2;PMS_P1;PMS_P2;Temp;Humidity;BMP_temperature;BMP_pressure;BME280_temperature;BME280_humidity;BME280_pressure;Samples;Min_cycle;Max_cycle;Signal;HPM_P1;HPM_P2
2023/07/10 00:02:09;;;;;;;6.05;1.52;;;;;;;14.34;89.76;100941.53;6254993;22;20001;-94
2023/07/10 00:04:35;;;;;;;7.88;1.88;;;;;;;14.27;89.58;100936.84;6254945;22;20013;-95
2023/07/10 00:07:01;;;;;;;7.22;1.42;;;;;;;14.30;89.05;100944.41;6254696;22;20013;-95
2023/07/10 00:09:26;;;;;;;9.32;2.05;;;;;;;14.19;88.68;100936.47;6254916;22;20082;-95
2023/07/10 00:11:52;;;;;;;5.07;1.58;;;;;;;14.15;89.21;100945.41;6254420;22;20085;-94
2023/07/10 00:14:20;;;;;;;4.93;1.77;;;;;;;14.04;90.23;100948.69;6254845;22;20069;-95
2023/07/10 00:16:46;;;;;;;6.20;1.63;;;;;;;14.07;91.39;100949.34;6254776;22;20428;-96
2023/07/10 00:19:11;;;;;;;9.15;1.65;;;;;;;14.09;92.19;100944.03;6255140;22;20013;-95
2023/07/10 00:21:37;;;;;;;10.88;1.83;;;;;;;14.03;94.98;100942.66;6254492;22;20001;-95
2023/07/10 00:24:03;;;;;;;6.85;1.30;;;;;;;14.07;96.07;100941.56;6254371;22;20088;-95
2023/07/10 00:26:28;;;;;;;7.38;1.60;;;;;;;13.86;98.82;100935.13;6254823;22;20005;-94
2023/07/10 00:28:56;;;;;;;8.40;1.85;;;;;;;13.95;100.00;100939.75;6254364;22;20440;-95
2023/07/10 00:31:24;;;;;;;3.88;1.35;;;;;;;14.05;99.95;100930.44;6254170;22;20025;-94
2023/07/10 00:33:50;;;;;;;7.63;1.50;;;;;;;13.92;99.04;100937.31;6151465;23;20003;-96
2023/07/10 00:36:25;;;;;;;9.57;1.85;;;;;;;13.99;100.00;100940.34;6254461;22;20322;-95
2023/07/10 00:38:50;;;;;;;10.35;2.65;;;;;;;13.82;100.00;100944.84;6254208;22;20033;-94
2023/07/10 00:41:17;;;;;;;8.13;2.50;;;;;;;13.91;99.11;100943.44;6151587;22;20016;-94
2023/07/10 00:43:47;;;;;;;8.68;1.92;;;;;;;13.87;99.42;100936.78;6254325;22;20001;-94
2023/07/10 00:46:39;;;;;;;8.80;1.80;;;;;;;13.98;98.50;100939.53;6151731;23;20009;-94
2023/07/10 00:49:21;;;;;;;10.90;1.70;;;;;;;13.77;100.00;100935.69;6254391;22;20006;-94
2023/07/10 00:54:34;;;;;;;3.65;1.23;;;;;;;13.77;99.60;100941.72;6166648;23;20325;-95
2023/07/10 00:57:02;;;;;;;6.13;1.20;;;;;;;13.81;100.00;100944.97;6181140;23;20008;-95
2023/07/10 00:59:29;;;;;;;7.45;1.40;;;;;;;13.72;99.99;100948.94;6285333;22;20449;-95
2023/07/10 01:02:12;;;;;;;4.72;1.08;;;;;;;13.66;99.91;100945.00;6285245;22;20033;-96
2023/07/10 01:04:40;;;;;;;5.05;1.30;;;;;;;13.68;99.73;100943.13;6285207;22;20029;-95
2023/07/10 01:07:08;;;;;;;7.38;1.52;;;;;;;13.69;98.66;100934.41;6285597;22;20074;-95
2023/07/10 01:09:33;;;;;;;8.07;1.42;;;;;;;13.61;99.42;100946.22;6285262;22;20017;-95
2023/07/10 01:11:58;;;;;;;7.65;1.50;;;;;;;13.54;100.00;100950.13;6285114;22;20017;-95
2023/07/10 01:14:24;;;;;;;5.82;1.27;;;;;;;13.38;100.00;100956.22;6284994;22;20012;-95
2023/07/10 01:16:50;;;;;;;6.50;1.77;;;;;;;13.19;100.00;100951.31;6285221;22;20084;-95
2023/07/10 01:19:21;;;;;;;7.25;1.00;;;;;;;13.37;99.05;100948.56;6285473;22;20009;-95
2023/07/10 01:21:47;;;;;;;7.72;2.28;;;;;;;13.40;99.26;100948.34;6285537;22;20036;-95
2023/07/10 01:24:13;;;;;;;3.63;1.25;;;;;;;13.31;98.09;100954.91;6181079;22;20002;-95
2023/07/10 01:26:39;;;;;;;10.25;2.05;;;;;;;13.30;97.90;100958.44;6284988;22;20001;-94
2023/07/10 01:29:31;;;;;;;6.72;1.70;;;;;;;13.24;99.26;100956.19;6180916;22;20013;-96
2023/07/10 01:31:58;;;;;;;5.63;1.33;;;;;;;13.17;100.00;100957.50;6263289;22;20442;-93
2023/07/10 01:34:31;;;;;;;6.85;1.58;;;;;;;13.12;100.00;100956.91;6284750;22;20011;-95
2023/07/10 01:36:57;;;;;;;6.38;1.33;;;;;;;13.09;100.00;100947.56;6285137;22;20012;-95
2023/07/10 01:39:34;;;;;;;6.35;1.42;;;;;;;13.21;100.00;100952.03;6285046;22;20009;-96
2023/07/10 01:42:00;;;;;;;4.43;1.33;;;;;;;13.11;100.00;100952.69;6285462;22;20002;-95
2023/07/10 01:44:32;;;;;;;8.18;2.35;;;;;;;13.07;100.00;100936.50;6180749;23;20001;-94
2023/07/10 01:46:59;;;;;;;7.85;1.30;;;;;;;13.11;100.00;100932.78;6284875;22;20020;-94
2023/07/10 01:49:31;;;;;;;8.30;1.27;;;;;;;13.11;100.00;100932.78;6284676;22;20001;-95
2023/07/10 01:51:58;;;;;;;4.63;1.15;;;;;;;13.02;100.00;100933.31;6285142;22;20088;-95
2023/07/10 01:54:24;;;;;;;3.15;0.88;;;;;;;13.06;100.00;100934.81;6284809;22;20005;-94
2023/07/10 01:56:49;;;;;;;1.95;0.70;;;;;;;13.09;100.00;100939.78;6285106;22;20037;-96
2023/07/10 01:59:15;;;;;;;6.72;1.40;;;;;;;13.09;100.00;100939.78;6284695;22;20032;-95
2023/07/10 02:01:41;;;;;;;4.55;1.15;;;;;;;13.03;100.00;100928.06;6284855;22;20005;-95
2023/07/10 02:04:06;;;;;;;7.35;1.58;;;;;;;13.13;100.00;100915.38;6284471;22;20009;-94
2023/07/10 02:06:34;;;;;;;5.63;1.42;;;;;;;13.14;100.00;100917.03;6284967;22;20002;-94
2023/07/10 02:09:00;;;;;;;5.50;1.80;;;;;;;13.09;100.00;100919.06;6285119;22;20361;-95
2023/07/10 02:11:26;;;;;;;7.95;2.22;;;;;;;13.26;100.00;100915.44;6180858;22;20008;-94
2023/07/10 02:13:51;;;;;;;7.82;1.98;;;;;;;13.14;100.00;100916.19;6285133;22;19997;-94
2023/07/10 02:16:16;;;;;;;11.43;2.35;;;;;;;13.05;100.00;100904.66;6284656;22;20058;-95
2023/07/10 02:18:42;;;;;;;9.90;1.55;;;;;;;13.07;100.00;100900.22;6284505;22;20029;-95
2023/07/10 02:21:08;;;;;;;7.47;1.40;;;;;;;12.96;100.00;100912.97;6284542;22;20092;-96
2023/07/10 02:23:36;;;;;;;7.75;1.17;;;;;;;12.94;100.00;100907.88;6284398;22;20350;-95
2023/07/10 02:26:02;;;;;;;6.22;1.02;;;;;;;13.01;100.00;100906.56;6181145;22;20001;-95
2023/07/10 02:28:27;;;;;;;5.57;1.23;;;;;;;12.88;100.00;100899.66;6284488;22;20009;-96
2023/07/10 02:30:53;;;;;;;9.20;1.33;;;;;;;12.98;100.00;100905.94;6284654;22;20426;-94
2023/07/10 02:33:19;;;;;;;5.90;1.20;;;;;;;12.79;100.00;100907.03;6284253;22;20094;-95
2023/07/10 02:35:46;;;;;;;4.68;1.08;;;;;;;12.85;100.00;100903.25;6284159;22;20096;-94
2023/07/10 02:38:11;;;;;;;6.82;1.48;;;;;;;12.83;100.00;100910.28;6284581;22;20415;-95
2023/07/10 02:40:37;;;;;;;6.90;1.30;;;;;;;12.76;100.00;100907.22;6180413;22;20072;-95
2023/07/10 02:43:02;;;;;;;7.00;1.25;;;;;;;12.73;100.00;100911.72;6181009;23;20066;-95
2023/07/10 02:45:27;;;;;;;8.55;1.80;;;;;;;12.92;100.00;100917.47;6180884;22;20072;-94
2023/07/10 02:47:53;;;;;;;6.88;1.23;;;;;;;12.87;100.00;100923.88;6284433;22;20012;-95
2023/07/10 02:50:18;;;;;;;6.43;1.85;;;;;;;12.83;100.00;100924.06;6180325;22;20595;-94
2023/07/10 02:52:43;;;;;;;5.72;1.30;;;;;;;12.80;100.00;100932.03;6284314;22;20005;-95
2023/07/10 02:55:09;;;;;;;8.02;1.67;;;;;;;12.80;100.00;100937.19;6283894;22;20005;-95
2023/07/10 02:57:34;;;;;;;6.57;2.10;;;;;;;12.79;100.00;100938.09;6284364;22;20005;-94
2023/07/10 02:59:59;;;;;;;4.65;1.30;;;;;;;12.81;100.00;100943.22;6180625;23;20032;-95
2023/07/10 03:02:25;;;;;;;4.95;1.08;;;;;;;12.86;100.00;100938.59;6283992;22;20005;-95
2023/07/10 03:04:50;;;;;;;4.85;1.20;;;;;;;12.63;100.00;100939.91;6284531;22;20009;-94
2023/07/10 03:07:15;;;;;;;5.40;1.02;;;;;;;12.71;100.00;100944.69;6284146;22;20441;-95
2023/07/10 03:09:41;;;;;;;9.30;1.75;;;;;;;12.70;100.00;100932.63;6284161;22;20009;-95
2023/07/10 03:12:07;;;;;;;5.15;1.25;;;;;;;12.61;100.00;100944.38;6284271;22;20121;-95
2023/07/10 03:14:32;;;;;;;5.32;1.00;;;;;;;12.59;100.00;100934.09;6283622;22;20036;-94
2023/07/10 03:16:59;;;;;;;4.65;1.27;;;;;;;12.53;100.00;100921.50;6283610;22;20449;-94
2023/07/10 03:19:28;;;;;;;6.80;1.15;;;;;;;12.52;100.00;100919.00;6284492;22;20092;-94
2023/07/10 03:21:54;;;;;;;5.95;1.55;;;;;;;12.55;100.00;100918.81;6180662;22;20005;-95
2023/07/10 03:24:19;;;;;;;12.43;1.50;;;;;;;12.49;100.00;100917.44;6283994;22;20008;-96
2023/07/10 03:26:47;;;;;;;7.80;1.33;;;;;;;12.44;100.00;100909.09;6180686;22;20005;-93
2023/07/10 03:29:13;;;;;;;6.63;1.35;;;;;;;12.46;100.00;100911.56;6283809;22;20001;-94
2023/07/10 03:31:39;;;;;;;6.93;1.60;;;;;;;12.50;100.00;100915.66;6284683;22;20384;-96
2023/07/10 03:34:05;;;;;;;8.07;1.92;;;;;;;12.39;100.00;100919.72;6180515;23;20005;-94
2023/07/10 03:36:31;;;;;;;5.65;1.00;;;;;;;12.39;100.00;100911.94;6284022;22;20435;-94
2023/07/10 03:38:57;;;;;;;10.63;1.10;;;;;;;12.37;100.00;100906.03;6180455;22;20032;-95
2023/07/10 03:41:23;;;;;;;4.22;1.20;;;;;;;12.28;100.00;100909.13;6284226;22;20087;-94
2023/07/10 03:43:48;;;;;;;6.25;1.40;;;;;;;12.37;100.00;100907.78;6283772;22;20005;-95
2023/07/10 03:46:18;;;;;;;8.07;1.83;;;;;;;12.37;100.00;100911.19;6283757;22;20001;-95
2023/07/10 03:48:43;;;;;;;6.28;1.33;;;;;;;12.40;100.00;100905.84;6283936;22;20084;-95
2023/07/10 03:51:09;;;;;;;8.82;1.70;;;;;;;12.47;100.00;100910.69;6284087;22;20137;-95
2023/07/10 03:53:35;;;;;;;7.50;1.20;;;;;;;12.43;100.00;100905.66;6283744;22;20427;-95
2023/07/10 03:56:01;;;;;;;4.13;1.20;;;;;;;12.39;100.00;100906.78;6283939;22;20005;-94
2023/07/10 03:58:31;;;;;;;3.72;1.13;;;;;;;12.27;100.00;100910.06;6180134;23;20009;-95
2023/07/10 04:00:58;;;;;;;6.18;1.40;;;;;;;12.39;100.00;100909.34;6284340;22;20091;-94
2023/07/10 04:03:26;;;;;;;10.07;2.20;;;;;;;12.49;100.00;100908.84;6284207;22;20005;-96
2023/07/10 04:05:54;;;;;;;5.35;1.60;;;;;;;12.42;100.00;100909.19;6283745;22;20005;-96
2023/07/10 04:08:20;;;;;;;6.72;1.70;;;;;;;12.43;100.00;100910.00;6284227;22;20076;-94
2023/07/10 04:10:53;;;;;;;7.38;1.50;;;;;;;12.40;100.00;100900.66;6283773;22;20016;-94
2023/07/10 04:13:19;;;;;;;9.65;1.50;;;;;;;12.50;100.00;100895.78;6283720;22;20005;-96
2023/07/10 04:16:03;;;;;;;12.88;2.00;;;;;;;12.58;100.00;100895.31;6284087;22;20009;-95
2023/07/10 04:18:31;;;;;;;6.50;1.48;;;;;;;12.63;100.00;100901.06;6284202;22;20048;-94
2023/07/10 04:20:58;;;;;;;6.70;1.35;;;;;;;12.59;100.00;100912.56;6284062;22;20493;-95
2023/07/10 04:23:24;;;;;;;6.78;1.45;;;;;;;12.69;100.00;100905.91;6284067;22;20005;-94
2023/07/10 04:25:49;;;;;;;6.80;1.40;;;;;;;12.68;100.00;100906.84;6284001;22;20016;-95
2023/07/10 04:28:15;;;;;;;12.07;1.90;;;;;;;12.76;100.00;100907.22;6285427;22;20005;-95
2023/07/10 04:30:40;;;;;;;8.60;1.92;;;;;;;12.81;100.00;100912.94;6285360;22;20013;-95
2023/07/10 04:33:08;;;;;;;8.55;2.45;;;;;;;12.82;100.00;100912.00;6285292;22;20008;-94
2023/07/10 04:35:34;;;;;;;12.10;2.63;;;;;;;12.92;100.00;100912.31;6285695;22;20025;-95
2023/07/10 04:37:59;;;;;;;11.90;3.42;;;;;;;13.06;100.00;100914.06;6181219;22;20422;-95
2023/07/10 04:40:25;;;;;;;9.15;2.03;;;;;;;13.06;100.00;100911.47;6285727;22;20357;-94
2023/07/10 04:42:51;;;;;;;8.02;1.63;;;;;;;13.11;100.00;100914.63;6285260;22;20005;-95
2023/07/10 04:45:17;;;;;;;11.20;3.28;;;;;;;13.24;100.00;100919.88;6285315;22;20012;-94
2023/07/10 04:47:42;;;;;;;9.82;1.90;;;;;;;13.33;100.00;100921.13;6285797;22;20327;-95
2023/07/10 04:50:08;;;;;;;15.98;3.72;;;;;;;13.29;100.00;100925.69;6285470;22;20099;-94
2023/07/10 04:52:33;;;;;;;10.85;2.40;;;;;;;13.39;100.00;100923.38;6285536;22;20005;-96
2023/07/10 04:54:59;;;;;;;9.07;2.30;;;;;;;13.46;100.00;100922.03;6285434;22;20009;-96
2023/07/10 04:57:24;;;;;;;16.17;4.63;;;;;;;13.51;100.00;100920.00;6181565;23;20415;-94
2023/07/10 04:59:49;;;;;;;21.27;4.97;;;;;;;13.53;100.00;100925.09;6285255;22;20016;-95
2023/07/10 05:02:15;;;;;;;19.38;5.22;;;;;;;13.57;100.00;100918.78;6285515;22;20084;-96
2023/07/10 05:04:41;;;;;;;14.98;5.30;;;;;;;13.74;100.00;100909.94;6285359;22;20001;-94
2023/07/10 05:07:06;;;;;;;18.15;5.80;;;;;;;13.70;100.00;100904.97;6285641;22;20422;-96
2023/07/10 05:09:32;;;;;;;11.32;4.75;;;;;;;13.76;100.00;100903.75;6285338;22;20005;-96
2023/07/10 05:11:58;;;;;;;12.52;4.88;;;;;;;13.83;100.00;100899.00;6285410;22;20036;-94
2023/07/10 05:14:24;;;;;;;14.00;4.63;;;;;;;13.92;100.00;100903.59;6285213;22;20009;-94
2023/07/10 05:16:50;;;;;;;20.40;5.50;;;;;;;13.90;100.00;100911.47;6285262;22;20005;-94
2023/07/10 05:19:15;;;;;;;12.93;5.97;;;;;;;13.97;100.00;100914.50;6285487;22;20001;-95
2023/07/10 05:21:40;;;;;;;11.63;5.20;;;;;;;14.00;100.00;100911.72;6285066;22;20005;-95
2023/07/10 05:24:06;;;;;;;23.00;6.47;;;;;;;14.01;100.00;100903.00;6284874;22;20339;-94
2023/07/10 05:26:31;;;;;;;20.38;6.65;;;;;;;14.05;100.00;100894.09;6284847;22;20008;-93
2023/07/10 05:28:56;;;;;;;15.40;5.57;;;;;;;14.13;100.00;100894.41;6284892;22;20056;-94
2023/07/10 05:31:22;;;;;;;18.70;6.60;;;;;;;14.23;100.00;100875.66;6285336;22;20005;-95
2023/07/10 05:33:49;;;;;;;11.45;5.28;;;;;;;14.34;100.00;100874.00;6284923;22;20084;-94
2023/07/10 05:36:16;;;;;;;14.43;4.97;;;;;;;14.39;100.00;100891.88;6284887;22;20393;-94
2023/07/10 05:38:42;;;;;;;21.02;6.60;;;;;;;14.48;100.00;100886.06;6284353;22;20058;-94
2023/07/10 05:41:08;;;;;;;16.98;5.90;;;;;;;14.55;100.00;100869.16;6285166;22;20017;-95
2023/07/10 05:43:35;;;;;;;12.07;5.30;;;;;;;14.62;100.00;100873.97;6284941;22;20074;-94
2023/07/10 05:46:01;;;;;;;15.68;4.43;;;;;;;14.70;100.00;100874.25;6181337;22;20001;-93
2023/07/10 05:48:27;;;;;;;12.80;3.88;;;;;;;14.82;100.00;100873.44;6181035;22;20010;-95
2023/07/10 05:50:53;;;;;;;14.43;4.90;;;;;;;14.97;100.00;100872.41;6285047;22;20069;-95
2023/07/10 05:53:19;;;;;;;22.13;5.25;;;;;;;14.94;100.00;100877.78;6285098;22;20009;-95
2023/07/10 05:55:47;;;;;;;20.60;3.95;;;;;;;15.04;100.00;100875.38;6180944;22;20001;-93
2023/07/10 05:58:14;;;;;;;16.67;4.20;;;;;;;14.98;100.00;100878.41;6284888;22;20050;-94
2023/07/10 06:00:41;;;;;;;11.68;3.85;;;;;;;15.21;100.00;100874.22;6181104;23;20001;-93
2023/07/10 06:03:07;;;;;;;13.80;3.67;;;;;;;15.18;100.00;100869.22;6181421;22;20057;-93
2023/07/10 06:05:32;;;;;;;13.80;3.28;;;;;;;15.27;100.00;100875.56;6181143;22;20376;-94
2023/07/10 06:07:58;;;;;;;11.05;3.65;;;;;;;15.28;100.00;100862.44;6284909;22;20033;-95
2023/07/10 06:10:23;;;;;;;13.52;3.08;;;;;;;15.40;100.00;100869.38;6284477;22;20009;-95
2023/07/10 06:12:49;;;;;;;15.73;3.40;;;;;;;15.29;100.00;100866.72;6284743;22;20005;-94
2023/07/10 06:15:14;;;;;;;12.70;2.95;;;;;;;15.40;100.00;100866.78;6180742;23;20047;-93
2023/07/10 06:17:39;;;;;;;19.52;3.50;;;;;;;15.58;100.00;100856.00;6180959;22;20051;-94
2023/07/10 06:20:06;;;;;;;13.85;3.42;;;;;;;15.65;100.00;100857.22;6285009;22;20015;-95
2023/07/10 06:22:31;;;;;;;11.48;2.75;;;;;;;15.62;100.00;100865.25;6181142;22;20009;-94
2023/07/10 06:24:57;;;;;;;14.23;2.83;;;;;;;15.54;100.00;100870.19;6284840;22;19993;-95
2023/07/10 06:27:22;;;;;;;9.50;2.83;;;;;;;15.51;100.00;100867.78;6284774;22;20058;-94
2023/07/10 06:29:47;;;;;;;12.43;3.05;;;;;;;15.55;100.00;100871.84;6284597;22;20001;-95
2023/07/10 06:32:13;;;;;;;14.52;3.28;;;;;;;15.68;100.00;100879.59;6284658;22;20013;-94
2023/07/10 06:34:38;;;;;;;16.83;3.00;;;;;;;15.76;100.00;100880.75;6284929;22;20005;-94
2023/07/10 06:37:04;;;;;;;14.98;3.15;;;;;;;16.12;100.00;100878.16;6284428;22;20483;-95
2023/07/10 06:39:29;;;;;;;16.50;3.17;;;;;;;16.22;100.00;100882.59;6180666;22;20004;-94
2023/07/10 06:41:54;;;;;;;8.95;2.25;;;;;;;17.23;98.47;100881.88;6284414;22;20009;-95
2023/07/10 06:44:20;;;;;;;14.60;3.00;;;;;;;16.38;100.00;100878.81;6284982;22;20453;-94
2023/07/10 06:46:46;;;;;;;12.05;2.63;;;;;;;16.12;100.00;100871.19;6284447;22;20135;-95
2023/07/10 06:49:11;;;;;;;14.75;2.28;;;;;;;16.18;100.00;100870.72;6284307;22;20070;-95
2023/07/10 06:51:37;;;;;;;10.60;2.00;;;;;;;16.02;100.00;100858.03;6285027;22;20001;-94
2023/07/10 06:54:03;;;;;;;16.10;2.78;;;;;;;16.04;100.00;100850.94;6284439;22;20387;-94
2023/07/10 06:56:32;;;;;;;10.70;2.53;;;;;;;16.07;100.00;100852.47;6284167;22;20331;-94
2023/07/10 06:58:58;;;;;;;14.23;3.05;;;;;;;16.10;100.00;100856.63;6284113;22;20016;-94
2023/07/10 07:01:24;;;;;;;10.07;1.85;;;;;;;16.09;100.00;100874.00;6180713;22;20091;-95
2023/07/10 07:03:49;;;;;;;9.13;2.58;;;;;;;16.08;100.00;100864.53;6284483;22;20005;-94
2023/07/10 07:06:15;;;;;;;12.43;2.33;;;;;;;16.20;100.00;100871.44;6284423;22;20431;-94
2023/07/10 07:08:45;;;;;;;13.50;2.38;;;;;;;16.16;100.00;100856.16;6180588;22;20005;-95
2023/07/10 07:11:10;;;;;;;9.50;1.85;;;;;;;16.20;100.00;100868.84;6284442;22;20009;-95
2023/07/10 07:13:36;;;;;;;10.35;2.47;;;;;;;16.36;100.00;100871.16;6283888;22;20461;-94
2023/07/10 07:16:01;;;;;;;11.05;2.15;;;;;;;16.38;100.00;100858.81;6284016;22;20427;-94
2023/07/10 07:18:27;;;;;;;20.00;2.80;;;;;;;16.58;100.00;100859.09;6284197;22;20089;-94
2023/07/10 07:20:52;;;;;;;10.50;1.60;;;;;;;16.73;98.70;100864.91;6283850;22;20004;-94
2023/07/10 07:23:18;;;;;;;16.65;3.22;;;;;;;16.75;97.88;100863.00;6283666;22;20002;-95
2023/07/10 07:25:43;;;;;;;16.05;2.47;;;;;;;16.97;96.07;100857.84;6180259;22;20312;-94
2023/07/10 07:28:09;;;;;;;10.77;2.10;;;;;;;16.90;94.92;100864.50;6283952;22;20020;-95
2023/07/10 07:30:34;;;;;;;18.27;1.85;;;;;;;16.80;94.16;100863.50;6180028;23;20044;-93
2023/07/10 07:33:01;;;;;;;13.93;1.75;;;;;;;16.78;95.10;100862.78;6284365;22;20040;-95
2023/07/10 07:35:26;;;;;;;8.68;1.58;;;;;;;16.67;95.54;100861.00;6180366;22;20058;-95
2023/07/10 07:37:52;;;;;;;9.65;2.10;;;;;;;16.85;95.44;100864.84;6180254;23;20005;-95
2023/07/10 07:40:17;;;;;;;9.40;2.83;;;;;;;16.96;93.78;100864.00;6283952;22;20005;-94
2023/07/10 07:42:46;;;;;;;16.92;2.85;;;;;;;17.33;90.41;100863.72;6180461;22;20005;-94
2023/07/10 07:45:13;;;;;;;12.57;2.05;;;;;;;17.54;88.08;100862.03;6284658;22;20009;-94
2023/07/10 07:47:40;;;;;;;9.07;1.70;;;;;;;18.07;84.78;100870.88;6284150;22;20001;-95
2023/07/10 07:50:07;;;;;;;16.17;2.33;;;;;;;17.96;85.45;100862.13;6283667;22;20020;-95
2023/07/10 07:52:33;;;;;;;14.00;2.08;;;;;;;17.45;84.43;100864.53;6283973;22;20085;-94
2023/07/10 07:54:58;;;;;;;5.95;1.27;;;;;;;17.40;85.83;100859.69;6283781;22;20323;-95
2023/07/10 07:57:24;;;;;;;10.38;2.38;;;;;;;17.29;86.02;100864.94;6283859;22;20339;-95
2023/07/10 07:59:50;;;;;;;6.15;1.25;;;;;;;17.25;85.39;100866.13;6283563;22;20009;-95
2023/07/10 08:02:16;;;;;;;14.20;1.83;;;;;;;17.35;85.52;100867.03;6284585;22;20009;-95
2023/07/10 08:04:41;;;;;;;12.38;3.10;;;;;;;17.55;84.26;100876.72;6183338;22;19993;-96
2023/07/10 08:07:08;;;;;;;11.85;2.00;;;;;;;17.40;83.88;100875.34;6181389;22;20411;-94
2023/07/10 08:09:34;;;;;;;14.65;1.58;;;;;;;17.27;86.10;100859.81;6285651;22;20100;-95
2023/07/10 08:11:59;;;;;;;13.05;2.10;;;;;;;17.44;86.46;100845.44;6285255;22;20388;-95
2023/07/10 08:14:25;;;;;;;14.48;2.72;;;;;;;17.53;85.31;100831.66;6285551;22;20009;-96
2023/07/10 08:16:51;;;;;;;13.77;2.22;;;;;;;17.83;84.19;100840.59;6285488;22;20087;-95
2023/07/10 08:19:16;;;;;;;11.52;2.33;;;;;;;17.80;84.09;100826.91;6285723;22;20050;-94
2023/07/10 08:21:42;;;;;;;9.27;2.22;;;;;;;17.90;82.99;100815.66;6181110;23;20033;-94
2023/07/10 08:24:07;;;;;;;15.85;1.98;;;;;;;18.45;80.00;100822.44;6285092;22;20021;-95
2023/07/10 08:26:33;;;;;;;11.68;1.73;;;;;;;18.69;78.06;100807.28;6181338;23;20072;-95
2023/07/10 08:29:24;;;;;;;13.70;2.35;;;;;;;19.15;76.04;100824.25;6285396;22;20097;-95
2023/07/10 08:31:54;;;;;;;11.40;1.80;;;;;;;19.84;72.10;100814.69;6181107;22;20051;-94
2023/07/10 08:34:19;;;;;;;18.30;2.33;;;;;;;19.27;72.02;100824.16;6180976;23;20001;-94
2023/07/10 08:36:45;;;;;;;9.75;1.63;;;;;;;18.91;74.23;100821.16;6181622;22;20461;-94
2023/07/10 08:39:10;;;;;;;17.20;3.33;;;;;;;20.01;69.96;100821.00;6181202;22;20001;-94
2023/07/10 08:41:36;;;;;;;15.50;3.55;;;;;;;20.26;68.34;100824.81;6284992;22;20420;-95
2023/07/10 08:44:02;;;;;;;8.48;2.08;;;;;;;19.84;68.00;100825.16;6180981;23;20364;-96
2023/07/10 08:46:27;;;;;;;8.48;1.55;;;;;;;19.71;68.36;100822.00;6285806;22;20017;-95
2023/07/10 08:49:02;;;;;;;9.60;1.65;;;;;;;20.33;66.67;100815.41;6285196;22;20158;-94
2023/07/10 08:51:34;;;;;;;7.20;1.70;;;;;;;20.59;64.51;100807.78;6285087;22;20013;-94
2023/07/10 08:54:13;;;;;;;9.10;1.50;;;;;;;20.19;67.02;100818.50;6180511;23;20012;-95
2023/07/10 08:56:47;;;;;;;9.90;1.75;;;;;;;20.19;65.89;100813.25;6180975;22;20547;-94
2023/07/10 08:59:28;;;;;;;13.50;1.58;;;;;;;20.19;66.46;100816.72;6181011;22;20001;-94
2023/07/10 09:01:55;;;;;;;6.90;2.10;;;;;;;20.01;67.28;100811.34;6180644;23;20001;-95
2023/07/10 09:04:21;;;;;;;8.77;2.15;;;;;;;20.15;67.30;100812.72;6284802;22;20491;-95
2023/07/10 09:06:51;;;;;;;11.27;1.55;;;;;;;20.38;65.33;100813.19;6284999;22;20328;-95
2023/07/10 09:09:34;;;;;;;8.32;2.58;;;;;;;20.40;63.75;100798.16;6181002;22;20005;-94
2023/07/10 09:12:04;;;;;;;13.07;2.45;;;;;;;20.00;65.35;100799.22;6180877;23;20012;-93
2023/07/10 09:14:43;;;;;;;13.63;1.70;;;;;;;19.81;66.19;100794.00;6284120;22;20005;-95
2023/07/10 09:17:23;;;;;;;8.80;1.83;;;;;;;19.52;66.04;100800.03;6285104;22;20005;-94
2023/07/10 09:19:53;;;;;;;8.10;1.50;;;;;;;19.71;64.71;100799.25;6180951;23;20001;-94
2023/07/10 09:22:19;;;;;;;9.32;1.45;;;;;;;19.39;66.42;100796.88;6180883;22;20005;-96
2023/07/10 09:24:44;;;;;;;9.30;1.70;;;;;;;19.60;65.63;100802.78;6284944;22;20009;-94
2023/07/10 09:27:14;;;;;;;7.32;1.95;;;;;;;19.41;66.58;100790.53;6284588;22;20075;-95
2023/07/10 09:29:43;;;;;;;14.02;1.38;;;;;;;19.45;66.36;100794.53;6284848;22;20005;-96
2023/07/10 09:32:17;;;;;;;11.88;2.05;;;;;;;19.43;68.39;100806.09;6180810;22;20002;-94
2023/07/10 09:35:08;;;;;;;12.55;1.60;;;;;;;19.49;67.52;100800.31;6180814;22;20008;-95
2023/07/10 09:37:36;;;;;;;7.45;1.70;;;;;;;19.23;67.57;100806.06;6182078;22;20092;-95
2023/07/10 09:40:36;;;;;;;12.02;1.65;;;;;;;19.18;68.21;100810.88;6180624;23;20037;-95
2023/07/10 09:43:04;;;;;;;9.32;1.23;;;;;;;19.10;68.19;100825.63;6284887;22;20031;-94
2023/07/10 09:45:36;;;;;;;10.80;2.20;;;;;;;18.90;70.00;100812.47;6284783;22;20005;-95
2023/07/10 09:48:01;;;;;;;13.77;1.83;;;;;;;19.10;70.57;100809.91;6284730;22;20101;-95
2023/07/10 09:50:32;;;;;;;8.10;1.50;;;;;;;18.96;70.00;100803.28;6284709;22;20013;-95
2023/07/10 09:52:57;;;;;;;9.70;1.83;;;;;;;19.10;70.38;100808.13;6284583;22;20482;-95
2023/07/10 09:55:23;;;;;;;11.73;1.90;;;;;;;18.73;72.03;100797.41;6284249;22;20113;-95
2023/07/10 09:58:00;;;;;;;12.15;1.92;;;;;;;18.55;73.21;100815.47;6284677;22;20066;-95
2023/07/10 10:00:27;;;;;;;10.23;1.73;;;;;;;18.40;74.63;100817.59;6284293;22;20005;-94
2023/07/10 10:03:00;;;;;;;14.60;3.47;;;;;;;18.40;74.34;100813.19;6180587;22;20441;-95
2023/07/10 10:05:27;;;;;;;10.15;2.13;;;;;;;18.69;73.13;100802.03;6284864;22;20008;-96
2023/07/10 10:08:01;;;;;;;7.32;1.40;;;;;;;18.81;72.55;100787.94;6284565;22;20441;-96
2023/07/10 10:10:37;;;;;;;14.52;1.83;;;;;;;18.60;72.54;100793.19;6284507;22;20031;-95
2023/07/10 10:13:23;;;;;;;10.57;2.08;;;;;;;18.60;72.42;100776.69;6284514;22;20093;-95
2023/07/10 10:15:52;;;;;;;10.88;1.95;;;;;;;18.75;72.94;100779.75;6284543;22;20005;-95
2023/07/10 10:18:50;;;;;;;12.07;2.25;;;;;;;19.21;71.90;100789.66;6284431;22;20029;-95
2023/07/10 10:21:18;;;;;;;12.75;2.78;;;;;;;19.04;70.44;100790.34;6180346;22;20411;-94
2023/07/10 10:23:46;;;;;;;14.73;2.05;;;;;;;19.09;70.69;100777.69;6180360;22;20009;-95
2023/07/10 10:26:30;;;;;;;10.52;1.50;;;;;;;19.14;70.83;100775.50;6284023;22;20002;-94
2023/07/10 10:29:02;;;;;;;8.48;1.55;;;;;;;18.69;72.67;100770.66;6180569;22;20462;-95
2023/07/10 10:31:35;;;;;;;6.78;1.52;;;;;;;18.76;73.69;100763.97;6284056;22;20013;-95
2023/07/10 10:34:12;;;;;;;15.50;1.95;;;;;;;18.61;76.24;100773.13;6284125;22;20005;-95
2023/07/10 10:36:37;;;;;;;15.50;1.95;;;;;;;18.62;76.92;100766.94;6284064;22;20001;-94
2023/07/10 10:39:05;;;;;;;13.38;1.90;;;;;;;18.74;75.77;100758.03;6284231;22;20037;-95
2023/07/10 10:41:57;;;;;;;12.20;2.38;;;;;;;18.84;75.41;100759.88;6284457;22;20360;-94
2023/07/10 10:44:30;;;;;;;12.07;2.03;;;;;;;18.97;70.73;100758.69;6280929;22;20517;-95
2023/07/10 10:47:33;;;;;;;10.70;1.83;;;;;;;19.08;69.34;100744.63;6180603;22;20059;-93
2023/07/10 10:50:18;;;;;;;7.82;1.50;;;;;;;19.39;67.94;100755.00;6283983;22;20077;-94
2023/07/10 10:52:46;;;;;;;13.75;2.60;;;;;;;19.51;66.95;100743.44;6283719;22;20013;-93
2023/07/10 10:55:33;;;;;;;7.45;1.50;;;;;;;19.72;64.84;100752.94;6283989;22;20381;-95
2023/07/10 10:58:06;;;;;;;12.02;2.65;;;;;;;20.05;62.76;100744.59;6180353;22;20009;-96
2023/07/10 11:00:47;;;;;;;7.55;1.40;;;;;;;21.35;58.63;100741.84;6284262;22;20009;-94
2023/07/10 11:03:23;;;;;;;13.30;1.92;;;;;;;20.57;59.69;100732.84;6283721;22;19997;-94
2023/07/10 11:05:52;;;;;;;11.95;1.55;;;;;;;20.52;60.88;100715.72;6283975;22;20001;-94
2023/07/10 11:08:24;;;;;;;14.68;2.35;;;;;;;20.64;60.06;100720.81;6283931;22;20031;-94
2023/07/10 11:10:52;;;;;;;18.23;4.88;;;;;;;20.23;60.90;100718.47;6283665;22;20066;-94
2023/07/10 11:13:39;;;;;;;8.98;2.00;;;;;;;20.61;60.56;100731.59;6283901;22;20005;-94
2023/07/10 11:16:06;;;;;;;13.35;2.50;;;;;;;20.57;60.20;100706.63;6283895;22;20007;-94
2023/07/10 11:18:33;;;;;;;15.18;2.20;;;;;;;20.33;61.15;100710.56;6284067;22;20025;-95
2023/07/10 11:21:01;;;;;;;8.05;1.52;;;;;;;20.49;60.47;100704.72;6180083;22;20090;-94
2023/07/10 11:23:42;;;;;;;8.77;2.00;;;;;;;20.31;60.93;100702.88;6284451;22;20361;-95
2023/07/10 11:26:15;;;;;;;6.97;1.52;;;;;;;20.23;62.60;100704.53;6283856;22;20005;-95